sensor_id;sensor_type;location;lat;lon;timestamp;P1;durP1;ratioP1;P2;durP2;ratioP2
59239;SDS011;45010;53.640;10.578;2023-01-29T00:00:40;1.23;;;0.70;;
59239;SDS011;45010;53.640;10.578;2023-01-29T00:03:40;0.82;;;0.57;;
59239;SDS011;45010;53.640;10.578;2023-01-29T00:06:41;0.70;;;0.60;;
59239;SDS011;45010;53.640;10.578;2023-01-29T00:09:42;0.85;;;0.50;;
59239;SDS011;45010;53.640;10.578;2023-01-29T00:12:42;1.13;;;0.50;;
59239;SDS011;45010;53.640;10.578;2023-01-29T00:15:51;0.60;;;0.55;;
59239;SDS011;45010;53.640;10.578;2023-01-29T00:18:52;0.80;;;0.52;;
59239;SDS011;45010;53.640;10.578;2023-01-29T00:21:52;1.45;;;0.77;;
59239;SDS011;45010;53.640;10.578;2023-01-29T00:24:53;0.80;;;0.60;;
59239;SDS011;45010;53.640;10.578;2023-01-29T00:27:53;1.30;;;0.50;;
59239;SDS011;45010;53.640;10.578;2023-01-29T00:30:53;0.88;;;0.52;;
59239;SDS011;45010;53.640;10.578;2023-01-29T00:33:54;0.50;;;0.50;;
59239;SDS011;45010;53.640;10.578;2023-01-29T00:36:54;1.95;;;0.57;;
59239;SDS011;45010;53.640;10.578;2023-01-29T00:40:03;0.98;;;0.80;;
59239;SDS011;45010;53.640;10.578;2023-01-29T00:43:04;1.27;;;0.68;;
59239;SDS011;45010;53.640;10.578;2023-01-29T00:46:23;0.82;;;0.57;;
59239;SDS011;45010;53.640;10.578;2023-01-29T00:49:23;0.70;;;0.60;;
59239;SDS011;45010;53.640;10.578;2023-01-29T00:52:25;0.85;;;0.57;;
59239;SDS011;45010;53.640;10.578;2023-01-29T00:55:26;0.57;;;0.50;;
59239;SDS011;45010;53.640;10.578;2023-01-29T00:58:26;1.73;;;0.80;;
59239;SDS011;45010;53.640;10.578;2023-01-29T01:01:33;0.90;;;0.57;;
59239;SDS011;45010;53.640;10.578;2023-01-29T01:04:52;1.48;;;0.70;;
59239;SDS011;45010;53.640;10.578;2023-01-29T01:07:53;0.77;;;0.47;;
59239;SDS011;45010;53.640;10.578;2023-01-29T01:11:02;1.92;;;0.60;;
59239;SDS011;45010;53.640;10.578;2023-01-29T01:14:04;1.45;;;0.82;;
59239;SDS011;45010;53.640;10.578;2023-01-29T01:17:05;1.58;;;0.63;;
59239;SDS011;45010;53.640;10.578;2023-01-29T01:20:05;1.10;;;0.80;;
59239;SDS011;45010;53.640;10.578;2023-01-29T01:23:06;0.73;;;0.50;;
59239;SDS011;45010;53.640;10.578;2023-01-29T01:26:09;0.88;;;0.60;;
59239;SDS011;45010;53.640;10.578;2023-01-29T01:29:10;0.75;;;0.50;;
59239;SDS011;45010;53.640;10.578;2023-01-29T01:32:11;0.52;;;0.50;;
59239;SDS011;45010;53.640;10.578;2023-01-29T01:35:12;0.60;;;0.52;;
59239;SDS011;45010;53.640;10.578;2023-01-29T01:38:15;0.90;;;0.50;;
59239;SDS011;45010;53.640;10.578;2023-01-29T01:41:17;1.75;;;0.50;;
59239;SDS011;45010;53.640;10.578;2023-01-29T01:48:02;1.38;;;0.55;;
59239;SDS011;45010;53.640;10.578;2023-01-29T01:51:12;1.38;;;0.60;;
59239;SDS011;45010;53.640;10.578;2023-01-29T01:54:25;1.05;;;0.70;;
59239;SDS011;45010;53.640;10.578;2023-01-29T01:57:30;0.93;;;0.60;;
59239;SDS011;45010;53.640;10.578;2023-01-29T02:00:31;1.00;;;0.70;;
59239;SDS011;45010;53.640;10.578;2023-01-29T02:03:32;1.63;;;1.10;;
59239;SDS011;45010;53.640;10.578;2023-01-29T02:06:55;0.57;;;0.50;;
59239;SDS011;45010;53.640;10.578;2023-01-29T02:10:17;0.63;;;0.60;;
59239;SDS011;45010;53.640;10.578;2023-01-29T02:13:18;1.55;;;1.00;;
59239;SDS011;45010;53.640;10.578;2023-01-29T02:16:19;1.77;;;0.57;;
59239;SDS011;45010;53.640;10.578;2023-01-29T02:26:38;1.48;;;0.55;;
59239;SDS011;45010;53.640;10.578;2023-01-29T02:29:54;0.40;;;0.40;;
59239;SDS011;45010;53.640;10.578;2023-01-29T02:36:11;1.02;;;0.55;;
59239;SDS011;45010;53.640;10.578;2023-01-29T02:39:23;1.13;;;0.60;;
59239;SDS011;45010;53.640;10.578;2023-01-29T02:42:37;0.65;;;0.60;;
59239;SDS011;45010;53.640;10.578;2023-01-29T02:51:59;1.05;;;0.50;;
59239;SDS011;45010;53.640;10.578;2023-01-29T02:55:06;0.93;;;0.60;;
59239;SDS011;45010;53.640;10.578;2023-01-29T02:58:31;2.55;;;0.60;;
59239;SDS011;45010;53.640;10.578;2023-01-29T03:01:38;0.73;;;0.40;;
59239;SDS011;45010;53.640;10.578;2023-01-29T03:04:45;0.60;;;0.40;;
59239;SDS011;45010;53.640;10.578;2023-01-29T03:07:52;0.50;;;0.50;;
59239;SDS011;45010;53.640;10.578;2023-01-29T03:11:09;0.65;;;0.50;;
59239;SDS011;45010;53.640;10.578;2023-01-29T03:14:17;0.93;;;0.40;;
59239;SDS011;45010;53.640;10.578;2023-01-29T03:17:24;0.70;;;0.57;;
59239;SDS011;45010;53.640;10.578;2023-01-29T03:20:29;0.63;;;0.55;;
59239;SDS011;45010;53.640;10.578;2023-01-29T03:23:35;0.73;;;0.47;;
59239;SDS011;45010;53.640;10.578;2023-01-29T03:26:54;0.60;;;0.40;;
59239;SDS011;45010;53.640;10.578;2023-01-29T03:30:15;0.75;;;0.40;;
59239;SDS011;45010;53.640;10.578;2023-01-29T03:33:39;1.02;;;0.50;;
59239;SDS011;45010;53.640;10.578;2023-01-29T03:36:54;0.70;;;0.60;;
59239;SDS011;45010;53.640;10.578;2023-01-29T03:39:58;1.17;;;0.50;;
59239;SDS011;45010;53.640;10.578;2023-01-29T03:43:03;0.50;;;0.50;;
59239;SDS011;45010;53.640;10.578;2023-01-29T03:46:09;0.40;;;0.40;;
59239;SDS011;45010;53.640;10.578;2023-01-29T03:49:24;0.60;;;0.60;;
59239;SDS011;45010;53.640;10.578;2023-01-29T03:52:46;0.50;;;0.50;;
59239;SDS011;45010;53.640;10.578;2023-01-29T03:56:16;0.52;;;0.50;;
59239;SDS011;45010;53.640;10.578;2023-01-29T03:59:35;0.40;;;0.38;;
59239;SDS011;45010;53.640;10.578;2023-01-29T04:02:45;1.15;;;0.70;;
59239;SDS011;45010;53.640;10.578;2023-01-29T04:05:59;0.50;;;0.50;;
59239;SDS011;45010;53.640;10.578;2023-01-29T04:09:11;0.57;;;0.50;;
59239;SDS011;45010;53.640;10.578;2023-01-29T04:12:20;0.60;;;0.52;;
59239;SDS011;45010;53.640;10.578;2023-01-29T04:15:26;1.50;;;0.45;;
59239;SDS011;45010;53.640;10.578;2023-01-29T04:18:28;0.73;;;0.50;;
59239;SDS011;45010;53.640;10.578;2023-01-29T04:21:29;0.60;;;0.60;;
59239;SDS011;45010;53.640;10.578;2023-01-29T04:24:31;0.98;;;0.50;;
59239;SDS011;45010;53.640;10.578;2023-01-29T04:37:05;1.02;;;0.60;;
59239;SDS011;45010;53.640;10.578;2023-01-29T04:40:14;0.82;;;0.55;;
59239;SDS011;45010;53.640;10.578;2023-01-29T04:43:22;0.45;;;0.45;;
59239;SDS011;45010;53.640;10.578;2023-01-29T04:46:45;0.45;;;0.40;;
59239;SDS011;45010;53.640;10.578;2023-01-29T04:50:02;1.17;;;0.55;;
59239;SDS011;45010;53.640;10.578;2023-01-29T04:53:06;1.27;;;0.70;;
59239;SDS011;45010;53.640;10.578;2023-01-29T05:00:05;0.68;;;0.60;;
59239;SDS011;45010;53.640;10.578;2023-01-29T05:02:47;0.82;;;0.40;;
59239;SDS011;45010;53.640;10.578;2023-01-29T05:05:48;0.80;;;0.40;;
59239;SDS011;45010;53.640;10.578;2023-01-29T05:08:50;0.95;;;0.40;;
59239;SDS011;45010;53.640;10.578;2023-01-29T05:11:51;0.70;;;0.60;;
59239;SDS011;45010;53.640;10.578;2023-01-29T05:14:52;1.02;;;0.70;;
59239;SDS011;45010;53.640;10.578;2023-01-29T05:17:55;0.75;;;0.40;;
59239;SDS011;45010;53.640;10.578;2023-01-29T05:21:01;0.65;;;0.65;;
59239;SDS011;45010;53.640;10.578;2023-01-29T05:24:13;0.43;;;0.43;;
59239;SDS011;45010;53.640;10.578;2023-01-29T05:27:16;0.60;;;0.40;;
59239;SDS011;45010;53.640;10.578;2023-01-29T05:30:38;0.60;;;0.60;;
59239;SDS011;45010;53.640;10.578;2023-01-29T05:33:39;0.88;;;0.50;;
59239;SDS011;45010;53.640;10.578;2023-01-29T05:36:39;0.40;;;0.40;;
59239;SDS011;45010;53.640;10.578;2023-01-29T05:39:39;0.75;;;0.70;;
59239;SDS011;45010;53.640;10.578;2023-01-29T05:42:40;0.63;;;0.50;;
59239;SDS011;45010;53.640;10.578;2023-01-29T05:45:40;0.50;;;0.50;;
59239;SDS011;45010;53.640;10.578;2023-01-29T05:48:41;0.43;;;0.35;;
59239;SDS011;45010;53.640;10.578;2023-01-29T05:51:41;1.15;;;0.50;;
59239;SDS011;45010;53.640;10.578;2023-01-29T05:54:41;0.68;;;0.60;;
59239;SDS011;45010;53.640;10.578;2023-01-29T05:57:42;0.73;;;0.57;;
59239;SDS011;45010;53.640;10.578;2023-01-29T06:00:42;1.05;;;0.50;;
59239;SDS011;45010;53.640;10.578;2023-01-29T06:03:42;0.80;;;0.60;;
59239;SDS011;45010;53.640;10.578;2023-01-29T06:06:43;0.60;;;0.40;;
59239;SDS011;45010;53.640;10.578;2023-01-29T06:09:43;0.38;;;0.38;;
59239;SDS011;45010;53.640;10.578;2023-01-29T06:12:44;0.80;;;0.80;;
59239;SDS011;45010;53.640;10.578;2023-01-29T06:15:45;0.60;;;0.40;;
59239;SDS011;45010;53.640;10.578;2023-01-29T06:18:45;0.50;;;0.50;;
59239;SDS011;45010;53.640;10.578;2023-01-29T06:21:46;0.82;;;0.50;;
59239;SDS011;45010;53.640;10.578;2023-01-29T06:24:46;0.43;;;0.30;;
59239;SDS011;45010;53.640;10.578;2023-01-29T06:27:49;0.43;;;0.43;;
59239;SDS011;45010;53.640;10.578;2023-01-29T06:30:49;0.68;;;0.50;;
59239;SDS011;45010;53.640;10.578;2023-01-29T06:33:50;0.60;;;0.60;;
59239;SDS011;45010;53.640;10.578;2023-01-29T06:36:50;0.52;;;0.40;;
59239;SDS011;45010;53.640;10.578;2023-01-29T06:39:50;0.98;;;0.40;;
59239;SDS011;45010;53.640;10.578;2023-01-29T06:42:51;0.43;;;0.43;;
59239;SDS011;45010;53.640;10.578;2023-01-29T06:45:52;0.40;;;0.40;;
59239;SDS011;45010;53.640;10.578;2023-01-29T06:48:56;0.43;;;0.38;;
59239;SDS011;45010;53.640;10.578;2023-01-29T06:51:58;0.60;;;0.40;;
59239;SDS011;45010;53.640;10.578;2023-01-29T06:54:58;0.50;;;0.50;;
59239;SDS011;45010;53.640;10.578;2023-01-29T06:57:59;0.50;;;0.50;;
59239;SDS011;45010;53.640;10.578;2023-01-29T07:01:07;0.50;;;0.50;;
59239;SDS011;45010;53.640;10.578;2023-01-29T07:04:10;0.30;;;0.30;;
59239;SDS011;45010;53.640;10.578;2023-01-29T07:07:10;0.40;;;0.40;;
59239;SDS011;45010;53.640;10.578;2023-01-29T07:10:12;0.50;;;0.50;;
59239;SDS011;45010;53.640;10.578;2023-01-29T07:13:12;0.35;;;0.30;;
59239;SDS011;45010;53.640;10.578;2023-01-29T07:16:13;0.55;;;0.43;;
59239;SDS011;45010;53.640;10.578;2023-01-29T07:19:13;0.30;;;0.30;;
59239;SDS011;45010;53.640;10.578;2023-01-29T07:22:13;0.50;;;0.50;;
59239;SDS011;45010;53.640;10.578;2023-01-29T07:25:15;0.40;;;0.40;;
59239;SDS011;45010;53.640;10.578;2023-01-29T07:28:16;0.52;;;0.40;;
59239;SDS011;45010;53.640;10.578;2023-01-29T07:31:17;0.68;;;0.50;;
59239;SDS011;45010;53.640;10.578;2023-01-29T07:34:17;0.63;;;0.60;;
59239;SDS011;45010;53.640;10.578;2023-01-29T07:37:18;0.40;;;0.40;;
59239;SDS011;45010;53.640;10.578;2023-01-29T07:40:18;0.43;;;0.40;;
59239;SDS011;45010;53.640;10.578;2023-01-29T07:43:18;1.67;;;0.50;;
59239;SDS011;45010;53.640;10.578;2023-01-29T07:46:19;0.40;;;0.40;;
59239;SDS011;45010;53.640;10.578;2023-01-29T07:49:20;0.30;;;0.30;;
59239;SDS011;45010;53.640;10.578;2023-01-29T07:52:20;0.63;;;0.55;;
59239;SDS011;45010;53.640;10.578;2023-01-29T07:55:20;0.93;;;0.55;;
59239;SDS011;45010;53.640;10.578;2023-01-29T07:58:21;0.47;;;0.47;;
59239;SDS011;45010;53.640;10.578;2023-01-29T08:01:21;2.00;;;0.50;;
59239;SDS011;45010;53.640;10.578;2023-01-29T08:04:22;1.15;;;0.60;;
59239;SDS011;45010;53.640;10.578;2023-01-29T08:07:22;0.88;;;0.68;;
59239;SDS011;45010;53.640;10.578;2023-01-29T08:10:23;0.45;;;0.40;;
59239;SDS011;45010;53.640;10.578;2023-01-29T08:13:23;0.45;;;0.40;;
59239;SDS011;45010;53.640;10.578;2023-01-29T08:16:24;2.33;;;0.40;;
59239;SDS011;45010;53.640;10.578;2023-01-29T08:19:24;1.67;;;0.50;;
59239;SDS011;45010;53.640;10.578;2023-01-29T08:22:24;1.02;;;0.50;;
59239;SDS011;45010;53.640;10.578;2023-01-29T08:25:25;0.60;;;0.40;;
59239;SDS011;45010;53.640;10.578;2023-01-29T08:28:25;1.38;;;0.50;;
59239;SDS011;45010;53.640;10.578;2023-01-29T08:31:26;1.08;;;0.65;;
59239;SDS011;45010;53.640;10.578;2023-01-29T08:34:26;1.00;;;0.50;;
59239;SDS011;45010;53.640;10.578;2023-01-29T08:37:26;1.55;;;0.40;;
59239;SDS011;45010;53.640;10.578;2023-01-29T08:40:28;0.93;;;0.82;;
59239;SDS011;45010;53.640;10.578;2023-01-29T08:43:30;1.42;;;0.50;;
59239;SDS011;45010;53.640;10.578;2023-01-29T08:46:31;2.67;;;0.60;;
59239;SDS011;45010;53.640;10.578;2023-01-29T08:49:31;0.70;;;0.50;;
59239;SDS011;45010;53.640;10.578;2023-01-29T08:52:31;0.55;;;0.45;;
59239;SDS011;45010;53.640;10.578;2023-01-29T08:55:33;0.80;;;0.60;;
59239;SDS011;45010;53.640;10.578;2023-01-29T08:58:35;0.65;;;0.60;;
59239;SDS011;45010;53.640;10.578;2023-01-29T09:01:35;0.60;;;0.50;;
59239;SDS011;45010;53.640;10.578;2023-01-29T09:04:36;0.40;;;0.40;;
59239;SDS011;45010;53.640;10.578;2023-01-29T09:07:36;0.80;;;0.43;;
59239;SDS011;45010;53.640;10.578;2023-01-29T09:10:36;0.50;;;0.50;;
59239;SDS011;45010;53.640;10.578;2023-01-29T09:13:37;2.20;;;0.40;;
59239;SDS011;45010;53.640;10.578;2023-01-29T09:16:37;0.80;;;0.40;;
59239;SDS011;45010;53.640;10.578;2023-01-29T09:19:37;0.60;;;0.60;;
59239;SDS011;45010;53.640;10.578;2023-01-29T09:22:38;0.35;;;0.35;;
59239;SDS011;45010;53.640;10.578;2023-01-29T09:25:38;0.57;;;0.40;;
59239;SDS011;45010;53.640;10.578;2023-01-29T09:28:38;0.98;;;0.70;;
59239;SDS011;45010;53.640;10.578;2023-01-29T09:31:38;0.60;;;0.50;;
59239;SDS011;45010;53.640;10.578;2023-01-29T09:34:39;0.60;;;0.47;;
59239;SDS011;45010;53.640;10.578;2023-01-29T09:37:39;0.45;;;0.45;;
59239;SDS011;45010;53.640;10.578;2023-01-29T09:40:43;0.73;;;0.47;;
59239;SDS011;45010;53.640;10.578;2023-01-29T09:44:10;0.93;;;0.50;;
59239;SDS011;45010;53.640;10.578;2023-01-29T09:47:18;2.03;;;0.40;;
59239;SDS011;45010;53.640;10.578;2023-01-29T09:50:27;0.50;;;0.47;;
59239;SDS011;45010;53.640;10.578;2023-01-29T09:56:57;2.35;;;0.40;;
59239;SDS011;45010;53.640;10.578;2023-01-29T09:59:57;1.73;;;0.40;;
59239;SDS011;45010;53.640;10.578;2023-01-29T10:03:04;1.70;;;0.77;;
59239;SDS011;45010;53.640;10.578;2023-01-29T10:06:19;0.63;;;0.50;;
59239;SDS011;45010;53.640;10.578;2023-01-29T10:09:43;1.38;;;0.43;;
59239;SDS011;45010;53.640;10.578;2023-01-29T10:19:40;0.60;;;0.60;;
59239;SDS011;45010;53.640;10.578;2023-01-29T10:23:00;1.58;;;0.50;;
59239;SDS011;45010;53.640;10.578;2023-01-29T10:26:22;0.93;;;0.80;;
59239;SDS011;45010;53.640;10.578;2023-01-29T10:29:26;1.75;;;1.00;;
59239;SDS011;45010;53.640;10.578;2023-01-29T10:32:27;1.20;;;0.95;;
59239;SDS011;45010;53.640;10.578;2023-01-29T10:35:31;2.70;;;1.20;;
59239;SDS011;45010;53.640;10.578;2023-01-29T10:38:43;1.23;;;1.10;;
59239;SDS011;45010;53.640;10.578;2023-01-29T10:42:08;1.98;;;1.30;;
59239;SDS011;45010;53.640;10.578;2023-01-29T10:45:44;2.60;;;1.30;;
59239;SDS011;45010;53.640;10.578;2023-01-29T10:49:07;2.58;;;1.40;;
59239;SDS011;45010;53.640;10.578;2023-01-29T10:55:54;3.95;;;1.30;;
59239;SDS011;45010;53.640;10.578;2023-01-29T10:59:12;2.67;;;1.50;;
59239;SDS011;45010;53.640;10.578;2023-01-29T11:02:33;1.40;;;1.30;;
59239;SDS011;45010;53.640;10.578;2023-01-29T11:05:35;1.45;;;1.35;;
59239;SDS011;45010;53.640;10.578;2023-01-29T11:12:02;5.18;;;2.15;;
59239;SDS011;45010;53.640;10.578;2023-01-29T11:15:13;6.40;;;2.60;;
59239;SDS011;45010;53.640;10.578;2023-01-29T11:18:18;7.65;;;2.38;;
59239;SDS011;45010;53.640;10.578;2023-01-29T11:21:31;5.22;;;1.92;;
59239;SDS011;45010;53.640;10.578;2023-01-29T11:24:32;8.10;;;3.28;;
59239;SDS011;45010;53.640;10.578;2023-01-29T11:27:32;6.88;;;2.63;;
59239;SDS011;45010;53.640;10.578;2023-01-29T11:30:38;4.32;;;2.10;;
59239;SDS011;45010;53.640;10.578;2023-01-29T11:33:40;5.63;;;1.90;;
59239;SDS011;45010;53.640;10.578;2023-01-29T11:36:41;4.75;;;2.15;;
59239;SDS011;45010;53.640;10.578;2023-01-29T11:39:42;6.07;;;2.53;;
59239;SDS011;45010;53.640;10.578;2023-01-29T11:42:46;3.42;;;1.77;;
59239;SDS011;45010;53.640;10.578;2023-01-29T11:45:47;6.20;;;2.40;;
59239;SDS011;45010;53.640;10.578;2023-01-29T11:48:49;3.70;;;1.80;;
59239;SDS011;45010;53.640;10.578;2023-01-29T11:51:53;4.97;;;2.50;;
59239;SDS011;45010;53.640;10.578;2023-01-29T11:54:59;3.65;;;1.90;;
59239;SDS011;45010;53.640;10.578;2023-01-29T11:58:12;6.07;;;2.40;;
59239;SDS011;45010;53.640;10.578;2023-01-29T12:01:28;6.78;;;2.35;;
59239;SDS011;45010;53.640;10.578;2023-01-29T12:04:32;4.80;;;2.03;;
59239;SDS011;45010;53.640;10.578;2023-01-29T12:07:32;2.97;;;2.13;;
59239;SDS011;45010;53.640;10.578;2023-01-29T12:10:37;4.50;;;2.30;;
59239;SDS011;45010;53.640;10.578;2023-01-29T12:13:40;5.72;;;2.15;;
59239;SDS011;45010;53.640;10.578;2023-01-29T12:16:45;4.43;;;2.45;;
59239;SDS011;45010;53.640;10.578;2023-01-29T12:20:07;3.13;;;2.08;;
59239;SDS011;45010;53.640;10.578;2023-01-29T12:26:42;2.42;;;2.22;;
59239;SDS011;45010;53.640;10.578;2023-01-29T12:29:59;4.28;;;2.35;;
59239;SDS011;45010;53.640;10.578;2023-01-29T12:33:13;4.45;;;2.30;;
59239;SDS011;45010;53.640;10.578;2023-01-29T12:36:31;3.60;;;1.95;;
59239;SDS011;45010;53.640;10.578;2023-01-29T12:39:52;2.63;;;1.92;;
59239;SDS011;45010;53.640;10.578;2023-01-29T12:42:54;3.70;;;2.42;;
59239;SDS011;45010;53.640;10.578;2023-01-29T12:46:00;4.13;;;2.65;;
59239;SDS011;45010;53.640;10.578;2023-01-29T12:49:02;4.88;;;2.17;;
59239;SDS011;45010;53.640;10.578;2023-01-29T12:52:10;3.13;;;2.33;;
59239;SDS011;45010;53.640;10.578;2023-01-29T12:55:20;3.42;;;2.22;;
59239;SDS011;45010;53.640;10.578;2023-01-29T12:58:26;3.38;;;2.15;;
59239;SDS011;45010;53.640;10.578;2023-01-29T13:01:33;5.47;;;2.78;;
59239;SDS011;45010;53.640;10.578;2023-01-29T13:04:39;4.20;;;1.95;;
59239;SDS011;45010;53.640;10.578;2023-01-29T13:07:46;2.63;;;1.90;;
59239;SDS011;45010;53.640;10.578;2023-01-29T13:10:51;2.28;;;2.08;;
59239;SDS011;45010;53.640;10.578;2023-01-29T13:14:05;3.90;;;2.05;;
59239;SDS011;45010;53.640;10.578;2023-01-29T13:17:15;1.95;;;1.80;;
59239;SDS011;45010;53.640;10.578;2023-01-29T13:20:25;3.75;;;1.98;;
59239;SDS011;45010;53.640;10.578;2023-01-29T13:23:31;2.35;;;1.83;;
59239;SDS011;45010;53.640;10.578;2023-01-29T13:26:35;2.85;;;2.15;;
59239;SDS011;45010;53.640;10.578;2023-01-29T13:29:36;2.55;;;2.13;;
59239;SDS011;45010;53.640;10.578;2023-01-29T13:32:36;2.17;;;1.90;;
59239;SDS011;45010;53.640;10.578;2023-01-29T13:35:38;2.47;;;1.85;;
59239;SDS011;45010;53.640;10.578;2023-01-29T13:38:41;2.38;;;2.00;;
59239;SDS011;45010;53.640;10.578;2023-01-29T13:41:44;2.38;;;2.00;;
59239;SDS011;45010;53.640;10.578;2023-01-29T13:44:48;2.58;;;1.77;;
59239;SDS011;45010;53.640;10.578;2023-01-29T13:47:51;4.28;;;2.33;;
59239;SDS011;45010;53.640;10.578;2023-01-29T13:50:52;5.60;;;2.13;;
59239;SDS011;45010;53.640;10.578;2023-01-29T13:53:56;2.45;;;2.25;;
59239;SDS011;45010;53.640;10.578;2023-01-29T13:57:01;3.65;;;2.00;;
59239;SDS011;45010;53.640;10.578;2023-01-29T14:00:01;2.70;;;1.70;;
59239;SDS011;45010;53.640;10.578;2023-01-29T14:06:04;5.53;;;1.95;;
59239;SDS011;45010;53.640;10.578;2023-01-29T14:09:27;2.50;;;2.00;;
59239;SDS011;45010;53.640;10.578;2023-01-29T14:12:37;3.25;;;2.22;;
59239;SDS011;45010;53.640;10.578;2023-01-29T14:15:39;3.20;;;2.38;;
59239;SDS011;45010;53.640;10.578;2023-01-29T14:18:51;3.42;;;2.30;;
59239;SDS011;45010;53.640;10.578;2023-01-29T14:21:58;3.35;;;2.10;;
59239;SDS011;45010;53.640;10.578;2023-01-29T14:24:59;2.40;;;2.00;;
59239;SDS011;45010;53.640;10.578;2023-01-29T14:28:02;2.17;;;1.95;;
59239;SDS011;45010;53.640;10.578;2023-01-29T14:31:12;3.20;;;1.88;;
59239;SDS011;45010;53.640;10.578;2023-01-29T14:34:14;3.00;;;1.80;;
59239;SDS011;45010;53.640;10.578;2023-01-29T14:37:20;2.45;;;2.10;;
59239;SDS011;45010;53.640;10.578;2023-01-29T14:40:26;2.53;;;1.80;;
59239;SDS011;45010;53.640;10.578;2023-01-29T14:43:28;2.00;;;1.77;;
59239;SDS011;45010;53.640;10.578;2023-01-29T14:52:53;3.00;;;1.60;;
59239;SDS011;45010;53.640;10.578;2023-01-29T14:56:09;2.28;;;1.70;;
59239;SDS011;45010;53.640;10.578;2023-01-29T14:59:15;4.32;;;1.90;;
59239;SDS011;45010;53.640;10.578;2023-01-29T15:05:40;35.13;;;16.98;;
59239;SDS011;45010;53.640;10.578;2023-01-29T15:08:44;23.35;;;9.63;;
59239;SDS011;45010;53.640;10.578;2023-01-29T15:11:55;19.20;;;8.30;;
59239;SDS011;45010;53.640;10.578;2023-01-29T15:18:30;15.50;;;6.10;;
59239;SDS011;45010;53.640;10.578;2023-01-29T15:21:36;12.05;;;4.78;;
59239;SDS011;45010;53.640;10.578;2023-01-29T15:24:36;8.40;;;4.32;;
59239;SDS011;45010;53.640;10.578;2023-01-29T15:27:41;8.43;;;4.60;;
59239;SDS011;45010;53.640;10.578;2023-01-29T15:30:43;9.48;;;4.55;;
59239;SDS011;45010;53.640;10.578;2023-01-29T15:33:44;10.45;;;4.63;;
59239;SDS011;45010;53.640;10.578;2023-01-29T15:36:47;10.02;;;5.05;;
59239;SDS011;45010;53.640;10.578;2023-01-29T15:39:49;9.25;;;4.57;;
59239;SDS011;45010;53.640;10.578;2023-01-29T15:42:49;7.57;;;4.03;;
59239;SDS011;45010;53.640;10.578;2023-01-29T15:45:50;10.20;;;3.92;;
59239;SDS011;45010;53.640;10.578;2023-01-29T15:48:53;10.55;;;4.30;;
59239;SDS011;45010;53.640;10.578;2023-01-29T15:51:55;10.55;;;3.95;;
59239;SDS011;45010;53.640;10.578;2023-01-29T15:55:00;7.18;;;3.63;;
59239;SDS011;45010;53.640;10.578;2023-01-29T15:58:04;8.43;;;3.67;;
59239;SDS011;45010;53.640;10.578;2023-01-29T16:01:06;6.78;;;3.42;;
59239;SDS011;45010;53.640;10.578;2023-01-29T16:04:08;5.90;;;3.30;;
59239;SDS011;45010;53.640;10.578;2023-01-29T16:07:13;6.82;;;3.40;;
59239;SDS011;45010;53.640;10.578;2023-01-29T16:10:18;5.45;;;2.92;;
59239;SDS011;45010;53.640;10.578;2023-01-29T16:13:21;5.68;;;3.22;;
59239;SDS011;45010;53.640;10.578;2023-01-29T16:16:24;7.43;;;3.53;;
59239;SDS011;45010;53.640;10.578;2023-01-29T16:19:27;8.13;;;3.53;;
59239;SDS011;45010;53.640;10.578;2023-01-29T16:22:29;9.40;;;3.55;;
59239;SDS011;45010;53.640;10.578;2023-01-29T16:25:32;7.35;;;3.63;;
59239;SDS011;45010;53.640;10.578;2023-01-29T16:28:39;7.13;;;3.17;;
59239;SDS011;45010;53.640;10.578;2023-01-29T16:31:44;8.45;;;3.22;;
59239;SDS011;45010;53.640;10.578;2023-01-29T16:34:47;8.85;;;3.20;;
59239;SDS011;45010;53.640;10.578;2023-01-29T16:37:48;7.90;;;3.47;;
59239;SDS011;45010;53.640;10.578;2023-01-29T16:47:36;6.80;;;2.80;;
59239;SDS011;45010;53.640;10.578;2023-01-29T16:50:40;5.40;;;2.58;;
59239;SDS011;45010;53.640;10.578;2023-01-29T16:53:51;6.82;;;2.50;;
59239;SDS011;45010;53.640;10.578;2023-01-29T16:56:57;6.18;;;2.80;;
59239;SDS011;45010;53.640;10.578;2023-01-29T16:59:59;5.40;;;2.72;;
59239;SDS011;45010;53.640;10.578;2023-01-29T17:03:03;6.53;;;2.40;;
59239;SDS011;45010;53.640;10.578;2023-01-29T17:06:09;5.38;;;2.47;;
59239;SDS011;45010;53.640;10.578;2023-01-29T17:09:30;7.20;;;2.78;;
59239;SDS011;45010;53.640;10.578;2023-01-29T17:12:33;5.25;;;2.75;;
59239;SDS011;45010;53.640;10.578;2023-01-29T17:18:41;5.10;;;2.17;;
59239;SDS011;45010;53.640;10.578;2023-01-29T17:21:42;5.00;;;2.72;;
59239;SDS011;45010;53.640;10.578;2023-01-29T17:24:42;5.05;;;2.47;;
59239;SDS011;45010;53.640;10.578;2023-01-29T17:27:43;3.90;;;2.30;;
59239;SDS011;45010;53.640;10.578;2023-01-29T17:30:50;5.40;;;2.53;;
59239;SDS011;45010;53.640;10.578;2023-01-29T17:33:50;5.18;;;2.90;;
59239;SDS011;45010;53.640;10.578;2023-01-29T17:36:51;5.32;;;2.53;;
59239;SDS011;45010;53.640;10.578;2023-01-29T17:39:51;4.63;;;1.85;;
59239;SDS011;45010;53.640;10.578;2023-01-29T17:42:51;3.72;;;2.05;;
59239;SDS011;45010;53.640;10.578;2023-01-29T17:45:52;6.63;;;2.85;;
59239;SDS011;45010;53.640;10.578;2023-01-29T17:48:52;3.83;;;2.15;;
59239;SDS011;45010;53.640;10.578;2023-01-29T17:51:53;3.78;;;1.63;;
59239;SDS011;45010;53.640;10.578;2023-01-29T17:54:55;4.10;;;2.40;;
59239;SDS011;45010;53.640;10.578;2023-01-29T17:57:55;3.15;;;2.10;;
59239;SDS011;45010;53.640;10.578;2023-01-29T18:00:55;3.72;;;1.90;;
59239;SDS011;45010;53.640;10.578;2023-01-29T18:03:56;3.35;;;2.08;;
59239;SDS011;45010;53.640;10.578;2023-01-29T18:06:56;3.40;;;1.90;;
59239;SDS011;45010;53.640;10.578;2023-01-29T18:09:57;3.25;;;1.92;;
59239;SDS011;45010;53.640;10.578;2023-01-29T18:12:57;3.05;;;1.90;;
59239;SDS011;45010;53.640;10.578;2023-01-29T18:15:57;4.30;;;2.00;;
59239;SDS011;45010;53.640;10.578;2023-01-29T18:18:58;3.58;;;2.25;;
59239;SDS011;45010;53.640;10.578;2023-01-29T18:21:58;3.08;;;1.58;;
59239;SDS011;45010;53.640;10.578;2023-01-29T18:24:58;4.50;;;2.08;;
59239;SDS011;45010;53.640;10.578;2023-01-29T18:27:59;3.05;;;1.85;;
59239;SDS011;45010;53.640;10.578;2023-01-29T18:31:00;2.50;;;1.60;;
59239;SDS011;45010;53.640;10.578;2023-01-29T18:34:01;2.88;;;1.83;;
59239;SDS011;45010;53.640;10.578;2023-01-29T18:37:01;3.25;;;1.70;;
59239;SDS011;45010;53.640;10.578;2023-01-29T18:40:02;5.00;;;2.03;;
59239;SDS011;45010;53.640;10.578;2023-01-29T18:43:02;3.17;;;1.80;;
59239;SDS011;45010;53.640;10.578;2023-01-29T18:46:03;4.32;;;1.58;;
59239;SDS011;45010;53.640;10.578;2023-01-29T18:49:05;4.25;;;1.63;;
59239;SDS011;45010;53.640;10.578;2023-01-29T18:52:05;2.97;;;1.60;;
59239;SDS011;45010;53.640;10.578;2023-01-29T18:55:06;2.00;;;1.80;;
59239;SDS011;45010;53.640;10.578;2023-01-29T18:58:08;3.22;;;1.60;;
59239;SDS011;45010;53.640;10.578;2023-01-29T19:01:09;4.45;;;1.52;;
59239;SDS011;45010;53.640;10.578;2023-01-29T19:04:10;3.38;;;1.52;;
59239;SDS011;45010;53.640;10.578;2023-01-29T19:07:12;3.10;;;1.40;;
59239;SDS011;45010;53.640;10.578;2023-01-29T19:10:13;2.72;;;1.52;;
59239;SDS011;45010;53.640;10.578;2023-01-29T19:13:15;3.83;;;1.45;;
59239;SDS011;45010;53.640;10.578;2023-01-29T19:16:16;2.38;;;1.73;;
59239;SDS011;45010;53.640;10.578;2023-01-29T19:19:16;2.83;;;1.52;;
59239;SDS011;45010;53.640;10.578;2023-01-29T19:22:16;2.85;;;1.45;;
59239;SDS011;45010;53.640;10.578;2023-01-29T19:25:17;4.40;;;1.40;;
59239;SDS011;45010;53.640;10.578;2023-01-29T19:28:18;2.83;;;1.40;;
59239;SDS011;45010;53.640;10.578;2023-01-29T19:31:18;3.10;;;1.30;;
59239;SDS011;45010;53.640;10.578;2023-01-29T19:34:18;2.60;;;1.45;;